Terminal Aerodrome Forecast
Issued by NWS Boise, ID

Home | Current Version | Previous Version | Text Only | Print | Product List | Glossary On
Versions: 1 2 3 4 5 6 7 8 9 10 11 12 13 14 15 16
000
FTUS45 KBOI 171738
TAFBNO
TAF
KBNO 171738Z 1718/1818 VRB06KT P6SM FEW100
     FM180000 07006KT P6SM SCT080 BKN120
     FM180600 07006KT 1SM -SN BR OVC015=

USA.gov is the U.S. government's official web portal to all federal, state and local government web resources and services.